Terminal Aerodrome Forecast
Issued by NWS

Current Version | Previous Version | Graphics & Text | Print | Product List | Glossary On
Versions: 1 2 3 4 5 6 7 8 9 10 11 12 13 14 15 16 17 18 19 20 21 22 23 24 25 26 27 28 29 30
000
FTUS41 KRLX 172332
TAFCKB
TAF
KCKB 172332Z 1800/1824 19004KT P6SM SCT250
     FM180200 00000KT P6SM VCTS FEW050CB
     FM180400 VRB03KT P6SM SCT250
     FM180600 VRB03KT P6SM BKN045
     FM181000 VRB03KT 5SM SHRA VCTS OVC035CB
     FM181400 23005KT P6SM VCTS BKN015CB
     FM181800 24007KT P6SM SCT025
     FM182000 24007KT P6SM SCT035=

USA.gov is the U.S. government's official web portal to all federal, state and local government web resources and services.